Time;durP1;ratioP1;P1;durP2;ratioP2;P2;SDS_P1;SDS_P2;PMS_P1;PMS_P2;Temp;Humidity;BMP_temperature;BMP_pressure;BME280_temperature;BME280_humidity;BME280_pressure;Samples;Min_cycle;Max_cycle;Signal;HPM_P1;HPM_P2
2023/08/31 00:00:41;;;;;;;5.70;4.53;;;31.40;99.90;;;;;;5015968;28;20022;-47
2023/08/31 00:03:08;;;;;;;6.00;4.60;;;31.40;99.90;;;;;;5015600;28;20030;-47
2023/08/31 00:05:39;;;;;;;5.47;4.47;;;31.40;99.90;;;;;;5015553;28;20056;-47
2023/08/31 00:08:06;;;;;;;5.53;4.30;;;31.40;99.90;;;;;;5015183;28;20022;-47
2023/08/31 00:10:32;;;;;;;6.47;5.07;;;31.40;99.90;;;;;;4997981;28;20053;-47
2023/08/31 00:12:58;;;;;;;6.95;4.70;;;31.40;99.90;;;;;;5015445;28;20030;-46
2023/08/31 00:15:23;;;;;;;6.95;4.68;;;31.40;99.90;;;;;;5015133;28;20033;-47
2023/08/31 00:17:50;;;;;;;6.95;4.50;;;31.40;99.90;;;;;;5015110;28;20033;-47
2023/08/31 00:20:17;;;;;;;6.63;4.78;;;31.40;99.90;;;;;;5013888;28;20026;-46
2023/08/31 00:22:42;;;;;;;6.50;4.47;;;31.30;99.90;;;;;;5014891;28;20030;-47
2023/08/31 00:25:08;;;;;;;6.65;5.00;;;31.30;99.90;;;;;;5015035;28;20033;-46
2023/08/31 00:27:36;;;;;;;6.45;5.22;;;31.30;99.90;;;;;;5014902;28;20109;-47
2023/08/31 00:30:07;;;;;;;5.80;4.57;;;31.30;99.90;;;;;;5013793;28;20026;-47
2023/08/31 00:32:34;;;;;;;5.85;4.75;;;31.30;99.90;;;;;;5014679;28;20105;-47
2023/08/31 00:35:00;;;;;;;7.53;5.05;;;31.30;99.90;;;;;;5015017;28;20040;-47
2023/08/31 00:37:26;;;;;;;5.38;3.97;;;31.30;99.90;;;;;;5014794;28;20037;-47
2023/08/31 00:39:52;;;;;;;7.90;4.50;;;31.30;99.90;;;;;;5014777;28;20038;-47
2023/08/31 00:42:21;;;;;;;6.82;4.82;;;31.30;99.90;;;;;;5014714;28;20050;-47
2023/08/31 00:44:48;;;;;;;4.45;3.88;;;31.30;99.90;;;;;;5014436;28;20030;-47
2023/08/31 00:47:15;;;;;;;6.18;4.57;;;31.30;99.90;;;;;;5014656;28;20478;-47
2023/08/31 00:49:41;;;;;;;6.75;4.68;;;31.30;99.90;;;;;;5014532;28;20042;-48
2023/08/31 00:52:07;;;;;;;6.00;5.00;;;31.30;99.90;;;;;;5014729;28;20079;-47
2023/08/31 00:54:34;;;;;;;7.10;4.63;;;31.30;99.90;;;;;;5014681;28;20056;-47
2023/08/31 00:57:00;;;;;;;7.22;4.47;;;31.20;99.90;;;;;;5014737;28;20473;-47
2023/08/31 00:59:26;;;;;;;6.43;4.18;;;31.20;99.90;;;;;;5013186;28;20066;-48
2023/08/31 01:02:07;;;;;;;6.50;4.57;;;31.20;99.90;;;;;;5013571;28;20490;-47
2023/08/31 01:05:11;;;;;;;6.35;4.75;;;31.20;99.90;;;;;;5014689;28;20386;-48
2023/08/31 01:08:02;;;;;;;6.10;3.88;;;31.20;99.90;;;;;;4993333;28;20033;-48
2023/08/31 01:10:46;;;;;;;5.47;4.50;;;31.20;99.90;;;;;;5013281;28;20509;-47
2023/08/31 01:13:18;;;;;;;8.05;5.40;;;31.20;99.90;;;;;;5014073;28;20034;-47
2023/08/31 01:15:53;;;;;;;7.63;4.93;;;31.20;99.90;;;;;;5014242;28;20097;-48
2023/08/31 01:18:24;;;;;;;7.78;5.18;;;31.20;99.90;;;;;;5014060;28;20021;-47
2023/08/31 01:21:14;;;;;;;7.38;4.63;;;31.20;99.90;;;;;;5014056;28;20113;-48
2023/08/31 01:23:53;;;;;;;6.97;4.80;;;31.20;99.90;;;;;;5013873;28;20033;-47
2023/08/31 01:26:20;;;;;;;8.73;5.60;;;31.10;99.90;;;;;;5013870;28;20080;-47
2023/08/31 01:28:47;;;;;;;6.38;5.35;;;31.10;99.90;;;;;;5013873;28;20021;-47
2023/08/31 01:31:15;;;;;;;7.15;4.55;;;31.10;99.90;;;;;;5013748;28;20117;-48
2023/08/31 01:33:41;;;;;;;7.00;4.80;;;31.20;99.90;;;;;;5013707;28;20128;-48
2023/08/31 01:36:21;;;;;;;6.70;4.85;;;31.10;99.90;;;;;;5013609;28;20041;-48
2023/08/31 01:38:55;;;;;;;6.05;4.88;;;31.10;99.90;;;;;;5013840;28;20022;-46
2023/08/31 01:41:23;;;;;;;8.10;4.75;;;31.10;99.90;;;;;;5013563;28;20030;-46
2023/08/31 01:43:52;;;;;;;7.57;4.75;;;31.10;99.90;;;;;;5013528;28;20022;-46
2023/08/31 01:46:19;;;;;;;6.57;5.15;;;31.10;99.90;;;;;;5012309;28;20079;-46
2023/08/31 01:48:45;;;;;;;6.90;5.67;;;31.10;99.90;;;;;;5013456;28;20538;-46
2023/08/31 01:51:11;;;;;;;7.10;4.97;;;31.10;99.90;;;;;;5012217;28;20099;-46
2023/08/31 01:53:37;;;;;;;6.47;5.25;;;31.10;99.90;;;;;;5012225;28;20037;-46
2023/08/31 01:56:04;;;;;;;6.03;5.13;;;31.10;99.90;;;;;;5013518;28;20026;-46
2023/08/31 01:58:30;;;;;;;5.93;4.72;;;31.10;99.90;;;;;;5013348;28;20050;-46
2023/08/31 02:00:56;;;;;;;8.35;5.43;;;31.00;99.90;;;;;;5020853;22;20077;-53
2023/08/31 02:03:22;;;;;;;6.68;5.07;;;31.10;99.90;;;;;;4993727;28;20121;-53
2023/08/31 02:05:48;;;;;;;7.32;5.18;;;31.10;99.90;;;;;;4993786;28;20522;-52
2023/08/31 02:08:17;;;;;;;5.30;4.47;;;31.10;99.90;;;;;;4993752;28;20019;-51
2023/08/31 02:10:44;;;;;;;7.25;5.25;;;31.00;99.90;;;;;;4993817;28;20029;-53
2023/08/31 02:13:09;;;;;;;7.22;5.55;;;31.10;99.90;;;;;;4992437;28;20058;-52
2023/08/31 02:15:38;;;;;;;6.00;4.82;;;31.00;99.90;;;;;;4993689;28;20065;-52
2023/08/31 02:18:04;;;;;;;7.20;5.43;;;31.00;99.90;;;;;;4993631;28;20425;-52
2023/08/31 02:20:30;;;;;;;8.90;4.82;;;31.00;99.90;;;;;;4993220;28;20026;-52
2023/08/31 02:22:56;;;;;;;6.15;4.90;;;31.00;99.90;;;;;;4993410;28;20026;-52
2023/08/31 02:25:22;;;;;;;7.13;5.55;;;31.00;99.90;;;;;;4993283;28;20073;-53
2023/08/31 02:27:48;;;;;;;7.05;5.45;;;31.00;99.90;;;;;;4993259;28;20037;-52
2023/08/31 02:30:13;;;;;;;6.10;5.03;;;31.00;99.90;;;;;;4993339;28;20029;-52
2023/08/31 02:32:39;;;;;;;7.20;5.50;;;31.00;99.90;;;;;;4993680;28;20101;-52
2023/08/31 02:35:05;;;;;;;7.03;4.80;;;31.00;99.90;;;;;;4993347;28;20022;-52
2023/08/31 02:37:31;;;;;;;6.97;4.72;;;30.90;99.90;;;;;;4993146;28;20081;-52
2023/08/31 02:39:57;;;;;;;7.40;4.78;;;31.00;99.90;;;;;;4993170;28;20030;-53
2023/08/31 02:42:22;;;;;;;6.00;4.47;;;31.00;99.90;;;;;;5008204;28;20505;-53
2023/08/31 02:44:52;;;;;;;6.25;4.93;;;30.90;99.90;;;;;;4993120;28;20174;-52
2023/08/31 02:47:18;;;;;;;7.18;5.25;;;31.00;99.90;;;;;;4991656;28;20399;-52
2023/08/31 02:49:44;;;;;;;6.90;4.93;;;31.00;99.90;;;;;;4993149;28;20033;-53
2023/08/31 02:52:09;;;;;;;7.15;5.07;;;30.90;99.90;;;;;;5008121;28;20068;-52
2023/08/31 02:54:35;;;;;;;6.80;5.00;;;30.90;99.90;;;;;;4993013;28;20073;-52
2023/08/31 02:57:02;;;;;;;6.25;5.05;;;30.90;99.90;;;;;;4992956;28;20030;-52
2023/08/31 02:59:27;;;;;;;6.03;4.97;;;30.90;99.90;;;;;;4993086;28;20026;-53
2023/08/31 03:01:54;;;;;;;6.63;5.55;;;30.90;99.90;;;;;;5018114;22;20295;-47
2023/08/31 03:04:20;;;;;;;5.78;4.82;;;30.90;99.90;;;;;;5012418;28;20104;-47
2023/08/31 03:06:45;;;;;;;6.38;4.80;;;30.90;99.90;;;;;;5012436;28;20515;-47
2023/08/31 03:09:11;;;;;;;6.97;5.30;;;30.90;99.90;;;;;;5012338;28;20160;-47
2023/08/31 03:11:37;;;;;;;6.68;4.93;;;30.90;99.90;;;;;;5012564;28;20064;-47
2023/08/31 03:14:03;;;;;;;6.53;5.25;;;30.90;99.90;;;;;;5012358;28;20050;-47
2023/08/31 03:16:29;;;;;;;6.28;4.57;;;30.90;99.90;;;;;;5012389;28;20026;-47
2023/08/31 03:18:54;;;;;;;5.40;4.43;;;30.90;99.90;;;;;;5012230;28;20032;-47
2023/08/31 03:21:20;;;;;;;5.60;4.53;;;30.80;99.90;;;;;;5012068;28;20064;-47
2023/08/31 03:23:46;;;;;;;6.05;4.82;;;30.90;99.90;;;;;;5012281;28;20050;-46
2023/08/31 03:26:12;;;;;;;5.97;4.53;;;30.90;99.90;;;;;;5012225;28;20355;-47
2023/08/31 03:28:40;;;;;;;6.72;5.03;;;30.90;99.90;;;;;;5012653;28;20545;-46
2023/08/31 03:31:05;;;;;;;6.70;4.78;;;30.90;99.90;;;;;;5012219;28;20022;-47
2023/08/31 03:33:31;;;;;;;6.45;4.78;;;30.90;99.90;;;;;;5014472;28;20100;-47
2023/08/31 03:36:04;;;;;;;6.15;4.78;;;30.80;99.90;;;;;;5016113;28;20025;-46
2023/08/31 03:38:37;;;;;;;6.05;4.53;;;30.80;99.90;;;;;;5016030;28;20076;-46
2023/08/31 03:41:03;;;;;;;6.88;5.15;;;30.80;99.90;;;;;;5015963;28;20018;-46
2023/08/31 03:43:28;;;;;;;6.35;4.47;;;30.80;99.90;;;;;;5015712;28;20033;-46
2023/08/31 03:45:58;;;;;;;6.85;5.10;;;30.80;99.90;;;;;;5015910;28;20177;-46
2023/08/31 03:48:24;;;;;;;6.35;5.03;;;30.80;99.90;;;;;;5015768;28;20069;-46
2023/08/31 03:50:52;;;;;;;6.35;5.05;;;30.80;99.90;;;;;;5015690;28;20025;-46
2023/08/31 03:53:18;;;;;;;5.78;4.40;;;30.80;99.90;;;;;;5015660;28;20103;-47
2023/08/31 03:55:44;;;;;;;5.40;4.45;;;30.80;99.90;;;;;;5015568;28;20428;-46
2023/08/31 03:58:10;;;;;;;5.60;4.40;;;30.80;99.90;;;;;;5015703;28;20470;-47
2023/08/31 04:00:39;;;;;;;4.90;3.90;;;30.80;99.90;;;;;;5014489;28;20037;-46
2023/08/31 04:03:06;;;;;;;5.63;4.78;;;30.80;99.90;;;;;;5015624;28;20073;-46
2023/08/31 04:05:35;;;;;;;4.95;4.38;;;30.80;99.90;;;;;;5015498;28;20026;-46
2023/08/31 04:08:02;;;;;;;6.35;4.72;;;30.80;99.90;;;;;;5015339;28;20033;-47
2023/08/31 04:10:29;;;;;;;7.50;4.63;;;30.80;99.90;;;;;;5015433;28;20024;-47
2023/08/31 04:12:55;;;;;;;6.47;4.28;;;30.80;99.90;;;;;;5015295;28;20084;-47
2023/08/31 04:15:21;;;;;;;5.90;4.90;;;30.70;99.90;;;;;;5015564;28;20421;-45
2023/08/31 04:17:49;;;;;;;4.47;3.95;;;30.70;99.90;;;;;;5015279;28;20084;-47
2023/08/31 04:20:15;;;;;;;6.18;4.28;;;30.70;99.90;;;;;;5015154;28;20033;-47
2023/08/31 04:22:41;;;;;;;6.47;4.30;;;30.70;99.90;;;;;;5015360;28;20022;-46
2023/08/31 04:25:07;;;;;;;5.63;4.20;;;30.70;99.90;;;;;;5015099;28;20032;-47
2023/08/31 04:27:33;;;;;;;5.57;4.00;;;30.70;99.90;;;;;;5015067;28;20018;-49
2023/08/31 04:30:01;;;;;;;6.57;4.30;;;30.70;99.90;;;;;;5015090;28;20105;-47
2023/08/31 04:32:27;;;;;;;8.50;4.70;;;30.70;99.90;;;;;;5013799;28;20410;-47
2023/08/31 04:34:53;;;;;;;5.75;4.47;;;30.70;99.90;;;;;;5013561;28;20034;-47
2023/08/31 04:37:19;;;;;;;5.75;4.20;;;30.70;99.90;;;;;;5014763;28;20049;-47
2023/08/31 04:39:45;;;;;;;6.63;4.88;;;30.70;99.90;;;;;;5013729;28;20442;-47
2023/08/31 04:42:10;;;;;;;6.72;4.65;;;30.70;99.90;;;;;;5014933;28;20034;-47
2023/08/31 04:44:36;;;;;;;6.35;5.25;;;30.70;99.90;;;;;;5013501;28;20033;-47
2023/08/31 04:47:02;;;;;;;6.20;4.95;;;30.70;99.90;;;;;;5014719;28;20022;-47
2023/08/31 04:49:28;;;;;;;6.53;4.82;;;30.70;99.90;;;;;;5029653;28;20465;-46
2023/08/31 04:51:53;;;;;;;5.97;4.53;;;30.70;99.90;;;;;;5014468;28;20018;-47
2023/08/31 04:54:19;;;;;;;6.25;5.05;;;30.70;99.90;;;;;;5014420;28;20478;-47
2023/08/31 04:56:45;;;;;;;6.65;4.82;;;30.70;99.90;;;;;;5013455;28;20026;-47
2023/08/31 04:59:11;;;;;;;6.68;5.05;;;30.70;99.90;;;;;;5014508;28;20049;-47
2023/08/31 05:01:36;;;;;;;6.68;5.35;;;30.70;99.90;;;;;;5014252;28;20050;-47
2023/08/31 05:04:03;;;;;;;7.72;5.63;;;30.70;99.90;;;;;;5014350;28;20481;-47
2023/08/31 05:06:28;;;;;;;7.00;5.28;;;30.70;99.90;;;;;;5012949;28;20092;-47
2023/08/31 05:08:54;;;;;;;7.30;5.10;;;30.70;99.90;;;;;;5014363;28;20026;-47
2023/08/31 05:11:20;;;;;;;7.10;5.18;;;30.70;99.90;;;;;;5014241;28;20022;-47
2023/08/31 05:13:46;;;;;;;5.93;4.82;;;30.60;99.90;;;;;;5014396;28;20065;-47
2023/08/31 05:16:12;;;;;;;6.80;5.65;;;30.60;99.90;;;;;;5014290;28;20029;-47
2023/08/31 05:18:39;;;;;;;5.85;4.90;;;30.60;99.90;;;;;;5014044;28;20030;-47
2023/08/31 05:21:05;;;;;;;6.30;5.10;;;30.60;99.90;;;;;;5014063;28;20014;-47
2023/08/31 05:23:31;;;;;;;6.20;4.63;;;30.60;99.90;;;;;;5013982;28;20045;-47
2023/08/31 05:25:58;;;;;;;6.72;4.97;;;30.60;99.90;;;;;;5014000;28;20022;-47
2023/08/31 05:28:23;;;;;;;5.78;4.68;;;30.60;99.90;;;;;;5013808;28;20029;-47
2023/08/31 05:30:55;;;;;;;8.18;5.15;;;30.60;99.90;;;;;;5012592;28;20489;-47
2023/08/31 05:33:27;;;;;;;7.28;5.30;;;30.60;99.90;;;;;;5013839;28;20036;-47
2023/08/31 05:35:53;;;;;;;5.97;4.45;;;30.60;99.90;;;;;;5012631;28;20022;-47
2023/08/31 05:38:18;;;;;;;6.68;5.05;;;30.60;99.90;;;;;;5013788;28;20037;-47
2023/08/31 05:40:46;;;;;;;6.63;5.00;;;30.60;99.90;;;;;;5013801;28;20033;-47
2023/08/31 05:43:12;;;;;;;;;;;30.50;99.90;;;;;;5013973;28;20026;-46
2023/08/31 05:45:38;;;;;;;6.13;4.80;;;30.60;99.90;;;;;;5013607;28;19909;-46
2023/08/31 05:48:04;;;;;;;6.22;5.05;;;30.60;99.90;;;;;;5013425;28;20501;-51
2023/08/31 05:50:30;;;;;;;6.93;4.70;;;30.50;99.90;;;;;;5013543;28;20072;-47
2023/08/31 05:52:56;;;;;;;6.03;4.75;;;30.50;99.90;;;;;;5013473;28;20030;-46
2023/08/31 05:55:22;;;;;;;6.03;4.38;;;30.50;99.90;;;;;;5011771;28;20108;-47
2023/08/31 05:57:48;;;;;;;8.55;4.45;;;30.50;99.90;;;;;;5013648;28;20046;-47
2023/08/31 06:00:15;;;;;;;5.68;4.05;;;30.50;99.90;;;;;;5013343;28;20017;-47
2023/08/31 06:02:40;;;;;;;7.07;5.13;;;30.50;99.90;;;;;;5013296;28;20449;-47
2023/08/31 06:05:07;;;;;;;7.00;4.85;;;30.50;99.90;;;;;;5013170;28;20021;-47
2023/08/31 06:07:33;;;;;;;8.27;4.60;;;30.50;99.90;;;;;;5013171;28;20059;-47
2023/08/31 06:09:58;;;;;;;5.47;4.38;;;30.50;99.90;;;;;;5013103;28;20030;-47
2023/08/31 06:12:24;;;;;;;6.93;4.00;;;30.50;99.90;;;;;;5013033;28;20030;-47
2023/08/31 06:14:50;;;;;;;6.30;4.35;;;30.50;99.90;;;;;;5013143;28;20034;-47
2023/08/31 06:17:16;;;;;;;5.80;4.18;;;30.50;99.90;;;;;;5013300;28;20018;-47
2023/08/31 06:19:42;;;;;;;7.55;4.45;;;30.50;99.90;;;;;;5012714;28;20048;-48
2023/08/31 06:22:08;;;;;;;5.60;4.45;;;30.50;99.90;;;;;;5012915;28;20026;-47
2023/08/31 06:24:34;;;;;;;5.45;4.78;;;30.50;99.90;;;;;;5012856;28;20025;-47
2023/08/31 06:27:00;;;;;;;5.53;4.63;;;30.50;99.90;;;;;;5012750;28;20028;-47
2023/08/31 06:29:26;;;;;;;5.43;3.95;;;30.40;99.90;;;;;;5013012;28;20100;-46
2023/08/31 06:31:52;;;;;;;5.45;3.97;;;30.50;99.90;;;;;;5012707;28;20025;-47
2023/08/31 06:34:18;;;;;;;5.15;4.18;;;30.50;99.90;;;;;;5012876;28;20040;-48
2023/08/31 06:36:43;;;;;;;6.85;4.60;;;30.50;99.90;;;;;;5012619;28;20022;-47
2023/08/31 06:39:09;;;;;;;7.03;4.30;;;30.50;99.90;;;;;;5012675;28;20080;-47
2023/08/31 06:41:35;;;;;;;8.35;4.78;;;30.50;99.90;;;;;;5012597;28;20427;-48
2023/08/31 06:44:02;;;;;;;7.43;4.72;;;30.50;99.90;;;;;;5012667;28;20053;-47
2023/08/31 06:46:28;;;;;;;7.00;5.00;;;30.50;99.90;;;;;;5012528;28;20026;-47
2023/08/31 06:48:54;;;;;;;7.50;4.38;;;30.50;99.90;;;;;;5012415;28;20034;-47
2023/08/31 06:51:20;;;;;;;6.13;4.32;;;30.40;99.90;;;;;;5012754;28;20018;-47
2023/08/31 06:53:46;;;;;;;6.20;4.45;;;30.40;99.90;;;;;;5012412;28;20386;-47
2023/08/31 06:56:12;;;;;;;6.78;4.70;;;30.50;99.90;;;;;;5012311;28;20549;-47
2023/08/31 06:58:38;;;;;;;6.55;4.57;;;30.50;99.90;;;;;;5012366;28;20169;-47
2023/08/31 07:01:06;;;;;;;5.13;4.03;;;30.50;99.90;;;;;;5012417;28;20038;-47
2023/08/31 07:03:32;;;;;;;5.63;3.90;;;30.50;99.90;;;;;;5012522;28;20049;-47
2023/08/31 07:05:59;;;;;;;5.25;4.07;;;30.50;99.90;;;;;;5012696;28;20474;-48
2023/08/31 07:08:24;;;;;;;5.50;4.03;;;30.50;99.90;;;;;;5015007;28;20040;-47
2023/08/31 07:10:50;;;;;;;6.40;4.57;;;30.50;99.90;;;;;;5016620;28;20034;-47
2023/08/31 07:13:16;;;;;;;6.95;4.03;;;30.50;99.90;;;;;;5016230;28;20026;-48
2023/08/31 07:15:42;;;;;;;5.82;4.47;;;30.50;99.90;;;;;;5015302;28;20032;-47
2023/08/31 07:18:08;;;;;;;5.40;4.20;;;30.50;99.90;;;;;;5016371;28;20064;-47
2023/08/31 07:20:34;;;;;;;5.47;4.25;;;30.50;99.90;;;;;;5016359;28;20100;-47
2023/08/31 07:22:59;;;;;;;5.30;4.25;;;30.50;99.90;;;;;;5016244;28;20022;-47
2023/08/31 07:25:25;;;;;;;5.45;4.38;;;30.60;99.90;;;;;;5016204;28;20030;-47
2023/08/31 07:27:52;;;;;;;5.45;4.07;;;30.60;99.90;;;;;;5014980;28;20049;-48
2023/08/31 07:30:17;;;;;;;5.00;3.85;;;30.60;99.90;;;;;;5016273;28;20397;-46
2023/08/31 07:32:43;;;;;;;4.47;3.92;;;30.50;99.90;;;;;;5016093;28;20045;-46
2023/08/31 07:35:09;;;;;;;6.20;4.40;;;30.60;99.90;;;;;;5015886;28;20400;-47
2023/08/31 07:37:37;;;;;;;6.07;4.38;;;30.60;99.90;;;;;;5015830;28;20029;-47
2023/08/31 07:40:08;;;;;;;5.10;3.97;;;30.60;99.90;;;;;;5015674;28;20022;-46
2023/08/31 07:42:34;;;;;;;5.13;3.85;;;30.60;99.90;;;;;;5015599;28;20531;-46
2023/08/31 07:45:00;;;;;;;6.57;3.67;;;30.60;99.90;;;;;;5015624;28;20159;-46
2023/08/31 07:47:26;;;;;;;4.93;3.80;;;30.60;99.90;;;;;;5015583;28;20105;-47
2023/08/31 07:49:51;;;;;;;4.93;3.83;;;30.60;99.90;;;;;;5015596;28;20468;-47
2023/08/31 07:52:17;;;;;;;5.60;3.78;;;30.70;99.90;;;;;;5015527;28;20103;-47
2023/08/31 07:54:43;;;;;;;6.30;4.75;;;30.70;99.90;;;;;;5014020;28;20037;-48
2023/08/31 07:57:08;;;;;;;5.18;4.15;;;30.70;99.90;;;;;;5015419;28;20092;-47
2023/08/31 07:59:34;;;;;;;5.25;3.67;;;30.70;99.90;;;;;;5015474;28;20034;-47
2023/08/31 08:02:00;;;;;;;5.25;4.30;;;30.70;99.90;;;;;;5014343;28;20046;-48
2023/08/31 08:04:27;;;;;;;5.82;3.65;;;30.70;99.90;;;;;;5014273;28;20025;-47
2023/08/31 08:06:54;;;;;;;5.47;4.10;;;30.70;99.90;;;;;;5014220;28;20104;-47
2023/08/31 08:09:19;;;;;;;5.00;3.90;;;30.70;99.90;;;;;;5013981;28;20032;-48
2023/08/31 08:11:45;;;;;;;5.45;4.00;;;30.70;99.90;;;;;;5013937;28;20019;-47
2023/08/31 08:14:11;;;;;;;5.47;4.18;;;30.70;99.90;;;;;;5013902;28;20140;-47
2023/08/31 08:16:37;;;;;;;4.55;3.70;;;30.70;99.90;;;;;;5013990;28;20076;-47
2023/08/31 08:19:03;;;;;;;7.93;3.90;;;30.70;99.90;;;;;;5013445;28;20490;-47
2023/08/31 08:21:28;;;;;;;4.70;3.92;;;30.70;99.90;;;;;;5013630;28;20049;-48
2023/08/31 08:23:54;;;;;;;5.25;3.70;;;30.70;99.90;;;;;;5013864;28;20022;-47
2023/08/31 08:26:20;;;;;;;4.50;3.22;;;30.80;99.90;;;;;;5013663;28;20045;-47
2023/08/31 08:28:46;;;;;;;5.50;4.20;;;30.80;99.90;;;;;;5013720;28;20019;-47
2023/08/31 08:31:12;;;;;;;5.68;4.03;;;30.80;99.90;;;;;;5013581;28;20509;-47
2023/08/31 08:33:38;;;;;;;7.65;4.15;;;30.80;99.90;;;;;;5013513;28;20034;-47
2023/08/31 08:36:04;;;;;;;5.30;3.88;;;30.80;99.90;;;;;;5013655;28;20029;-47
2023/08/31 08:38:30;;;;;;;4.70;4.05;;;30.80;99.90;;;;;;5013492;28;20032;-47
2023/08/31 08:40:55;;;;;;;6.03;3.90;;;30.80;99.90;;;;;;5012463;28;20108;-47
2023/08/31 08:43:26;;;;;;;6.10;4.30;;;30.80;99.90;;;;;;5013549;28;20030;-47
2023/08/31 08:45:54;;;;;;;6.55;4.72;;;30.80;99.90;;;;;;5013478;28;20038;-47
2023/08/31 08:48:21;;;;;;;6.20;4.47;;;30.80;99.90;;;;;;5013563;28;20014;-47
2023/08/31 08:50:48;;;;;;;4.97;4.45;;;30.80;99.90;;;;;;5013635;28;20133;-47
2023/08/31 08:53:15;;;;;;;;;;;30.80;99.90;;;;;;5014111;28;20073;-48
2023/08/31 08:55:43;;;;;;;4.68;3.85;;;30.80;99.90;;;;;;5013512;28;20258;-48
2023/08/31 08:58:09;;;;;;;7.70;4.05;;;30.80;99.90;;;;;;5013337;28;20088;-47
2023/08/31 09:00:36;;;;;;;5.50;4.47;;;30.90;99.90;;;;;;4953043;28;1742436;-47
2023/08/31 09:03:05;;;;;;;5.53;4.43;;;30.80;99.90;;;;;;5014384;28;20034;-47
2023/08/31 09:05:34;;;;;;;8.75;4.57;;;30.80;99.90;;;;;;5014343;28;20026;-47
2023/08/31 09:08:12;;;;;;;8.02;4.78;;;30.90;99.90;;;;;;5014339;28;20040;-47
2023/08/31 09:10:40;;;;;;;5.32;4.30;;;30.90;99.90;;;;;;5014079;28;20092;-47
2023/08/31 09:13:10;;;;;;;5.93;4.38;;;30.90;99.90;;;;;;5013966;28;20406;-47
2023/08/31 09:15:47;;;;;;;6.75;4.93;;;30.90;99.90;;;;;;5014025;28;20053;-47
2023/08/31 09:18:28;;;;;;;6.88;4.65;;;30.90;99.90;;;;;;5013932;28;20054;-49
2023/08/31 09:20:58;;;;;;;5.57;4.03;;;30.90;99.90;;;;;;5014310;28;20025;-48
2023/08/31 09:23:25;;;;;;;6.45;4.65;;;30.90;99.90;;;;;;5014079;28;20382;-47
2023/08/31 09:25:53;;;;;;;9.02;4.88;;;30.90;99.90;;;;;;5014011;28;20144;-47
2023/08/31 09:28:26;;;;;;;5.93;4.70;;;30.90;99.90;;;;;;5013862;28;20030;-48
2023/08/31 09:30:53;;;;;;;6.60;4.47;;;30.90;99.90;;;;;;5012979;28;20133;-47
2023/08/31 09:33:23;;;;;;;7.50;4.80;;;30.90;99.90;;;;;;5013571;28;20521;-48
2023/08/31 09:35:55;;;;;;;7.15;5.00;;;30.90;99.90;;;;;;5012668;28;20410;-47
2023/08/31 09:38:21;;;;;;;6.20;4.30;;;30.90;99.90;;;;;;5013774;28;20073;-49
2023/08/31 09:40:47;;;;;;;5.22;4.07;;;30.90;99.90;;;;;;5013702;28;20430;-49
2023/08/31 09:43:25;;;;;;;5.05;4.28;;;30.90;99.90;;;;;;5013522;28;20030;-47
2023/08/31 09:45:52;;;;;;;6.63;4.85;;;30.90;99.90;;;;;;5013321;28;20026;-47
2023/08/31 09:48:19;;;;;;;7.07;4.63;;;31.00;99.90;;;;;;5013237;28;20565;-47
2023/08/31 09:50:45;;;;;;;6.93;5.68;;;31.00;99.90;;;;;;5013240;28;20033;-47
2023/08/31 09:53:12;;;;;;;7.05;4.97;;;31.00;99.90;;;;;;5013220;28;20050;-47
2023/08/31 09:55:40;;;;;;;6.88;4.90;;;31.00;99.90;;;;;;5013193;28;20030;-47
2023/08/31 09:58:07;;;;;;;7.55;4.65;;;31.00;99.90;;;;;;5013179;28;20026;-47
2023/08/31 10:00:36;;;;;;;5.53;4.65;;;31.10;99.90;;;;;;5013003;28;20053;-47
2023/08/31 10:03:04;;;;;;;6.63;4.90;;;31.00;99.90;;;;;;5012127;28;20486;-47
2023/08/31 10:05:31;;;;;;;6.47;4.88;;;31.00;99.90;;;;;;5013355;28;20402;-47
2023/08/31 10:07:58;;;;;;;7.00;5.25;;;31.10;99.90;;;;;;5013036;28;20022;-47
2023/08/31 10:10:24;;;;;;;;;;;31.10;99.90;;;;;;5013562;28;20022;-48
2023/08/31 10:12:51;;;;;;;5.85;5.03;;;31.10;99.90;;;;;;5013296;28;20004;-47
2023/08/31 10:15:17;;;;;;;;;;;31.10;99.90;;;;;;5013536;28;20037;-47
2023/08/31 10:17:44;;;;;;;5.53;4.47;;;31.10;99.90;;;;;;5013094;28;19906;-47
2023/08/31 10:20:13;;;;;;;8.73;5.00;;;31.20;99.90;;;;;;5012989;28;20030;-47
2023/08/31 10:22:39;;;;;;;7.38;5.50;;;31.20;99.90;;;;;;5012800;28;20129;-47
2023/08/31 10:25:06;;;;;;;6.82;5.30;;;31.20;99.90;;;;;;5011656;28;20542;-47
2023/08/31 10:27:40;;;;;;;8.25;5.88;;;31.20;99.90;;;;;;5013109;28;20022;-46
2023/08/31 10:30:22;;;;;;;7.05;5.28;;;31.20;99.90;;;;;;5011533;28;20493;-47
2023/08/31 10:33:09;;;;;;;6.40;5.05;;;31.30;99.90;;;;;;5012745;28;20053;-47
2023/08/31 10:35:48;;;;;;;7.72;5.55;;;31.30;99.90;;;;;;5012586;28;20096;-47
2023/08/31 10:38:33;;;;;;;6.13;5.00;;;31.30;99.90;;;;;;5012592;28;20026;-47
2023/08/31 10:41:05;;;;;;;7.63;5.43;;;31.30;99.90;;;;;;5012620;28;20494;-47
2023/08/31 10:43:53;;;;;;;6.80;5.72;;;31.30;99.90;;;;;;5012684;28;20033;-47
2023/08/31 10:46:32;;;;;;;8.15;6.07;;;31.40;99.90;;;;;;5012618;28;20469;-47
2023/08/31 10:49:00;;;;;;;7.55;5.60;;;31.30;99.90;;;;;;5012583;28;20048;-47
2023/08/31 10:51:31;;;;;;;8.02;5.78;;;31.40;99.90;;;;;;5012464;28;20105;-47
2023/08/31 10:54:20;;;;;;;7.68;6.70;;;31.40;99.90;;;;;;5012446;28;20034;-47
2023/08/31 10:56:54;;;;;;;7.72;6.13;;;31.40;99.90;;;;;;5012495;28;20033;-46
2023/08/31 10:59:21;;;;;;;9.20;7.18;;;31.40;99.90;;;;;;5012573;28;20409;-47
2023/08/31 11:01:56;;;;;;;10.10;6.43;;;31.40;99.90;;;;;;5012415;28;20069;-47
2023/08/31 11:04:27;;;;;;;7.38;5.70;;;31.50;99.90;;;;;;5012401;28;20022;-48
2023/08/31 11:07:31;;;;;;;6.97;6.00;;;31.50;99.90;;;;;;5011158;28;20025;-48
2023/08/31 11:10:23;;;;;;;7.88;5.78;;;31.50;99.90;;;;;;4971314;28;20034;-47
2023/08/31 11:12:53;;;;;;;8.23;6.15;;;31.50;99.90;;;;;;4971138;28;20150;-47
2023/08/31 11:15:25;;;;;;;7.22;6.20;;;31.50;99.90;;;;;;4991850;28;20049;-47
2023/08/31 11:17:53;;;;;;;8.60;6.65;;;31.60;99.90;;;;;;5012439;28;20022;-47
2023/08/31 11:20:22;;;;;;;7.63;5.68;;;31.60;99.90;;;;;;5011107;28;20041;-47
2023/08/31 11:22:54;;;;;;;7.50;5.68;;;31.60;99.90;;;;;;5012305;28;20064;-47
2023/08/31 11:25:23;;;;;;;6.70;5.78;;;31.60;99.90;;;;;;5011984;28;20516;-47
2023/08/31 11:27:59;;;;;;;6.55;5.35;;;31.60;99.90;;;;;;5011897;28;20030;-47
2023/08/31 11:30:26;;;;;;;7.82;5.82;;;31.60;99.90;;;;;;5010775;28;20105;-47
2023/08/31 11:32:52;;;;;;;6.97;5.82;;;31.60;99.90;;;;;;5012236;28;20041;-47
2023/08/31 11:35:23;;;;;;;6.83;5.73;;;31.60;99.90;;;;;;5011971;28;20096;-46
2023/08/31 11:37:57;;;;;;;7.95;5.55;;;31.70;99.90;;;;;;5012177;28;20048;-46
2023/08/31 11:40:23;;;;;;;6.00;5.15;;;31.70;99.90;;;;;;5012036;28;20049;-47
2023/08/31 11:42:50;;;;;;;8.50;5.93;;;31.70;99.90;;;;;;5026927;28;20514;-47
2023/08/31 11:45:16;;;;;;;7.85;4.85;;;31.70;99.90;;;;;;5011984;28;20037;-47
2023/08/31 11:47:44;;;;;;;8.10;5.28;;;31.70;99.90;;;;;;5011784;28;20394;-47
2023/08/31 11:50:11;;;;;;;7.05;5.40;;;31.70;99.90;;;;;;5011875;28;20034;-47
2023/08/31 11:52:38;;;;;;;6.55;4.72;;;31.80;99.90;;;;;;5012094;28;20088;-47
2023/08/31 11:55:12;;;;;;;6.22;5.18;;;31.80;99.90;;;;;;5015240;28;20053;-48
2023/08/31 11:57:37;;;;;;;6.53;4.40;;;31.80;99.90;;;;;;5015931;28;20026;-47
2023/08/31 12:00:05;;;;;;;7.22;4.88;;;31.80;99.90;;;;;;5015655;28;20080;-48
2023/08/31 12:02:40;;;;;;;5.72;4.45;;;31.80;99.90;;;;;;5015024;28;20045;-47
2023/08/31 12:05:06;;;;;;;6.95;5.00;;;31.80;99.90;;;;;;5015652;28;20022;-47
2023/08/31 12:07:32;;;;;;;9.43;5.47;;;31.80;99.90;;;;;;5015410;28;20389;-47
2023/08/31 12:10:04;;;;;;;7.07;5.05;;;31.90;99.90;;;;;;5015417;28;20032;-47
2023/08/31 12:12:32;;;;;;;5.90;5.00;;;31.90;99.90;;;;;;5015357;28;20364;-47
2023/08/31 12:15:02;;;;;;;9.80;6.20;;;31.80;99.90;;;;;;5015183;28;20113;-48
2023/08/31 12:17:32;;;;;;;7.80;5.55;;;31.80;99.90;;;;;;5015205;28;20022;-47
2023/08/31 12:20:05;;;;;;;8.43;5.72;;;31.90;99.90;;;;;;5015186;28;20121;-47
2023/08/31 12:22:31;;;;;;;9.80;6.32;;;31.90;99.90;;;;;;5014039;28;20374;-47
2023/08/31 12:24:56;;;;;;;8.27;5.20;;;31.90;99.90;;;;;;5015068;28;20030;-47
2023/08/31 12:27:22;;;;;;;7.35;4.90;;;31.90;99.90;;;;;;5015143;28;20410;-47
2023/08/31 12:29:49;;;;;;;9.20;5.72;;;31.90;99.90;;;;;;5014950;28;20168;-47
2023/08/31 12:32:15;;;;;;;;;;;32.00;99.90;;;;;;5015356;28;20018;-47
2023/08/31 12:34:41;;;;;;;9.63;5.10;;;31.90;99.90;;;;;;5014928;28;20344;-47
2023/08/31 12:37:07;;;;;;;8.02;4.97;;;32.00;99.90;;;;;;5015094;28;20037;-47
2023/08/31 12:39:33;;;;;;;6.80;4.85;;;32.00;99.90;;;;;;5014967;28;20030;-48
2023/08/31 12:41:59;;;;;;;9.07;5.68;;;32.00;99.90;;;;;;5014782;28;20402;-48
2023/08/31 12:44:25;;;;;;;8.50;5.55;;;32.00;99.90;;;;;;5014809;28;20109;-47
2023/08/31 12:46:52;;;;;;;6.38;4.75;;;32.00;99.90;;;;;;5014699;28;20026;-48
2023/08/31 12:49:20;;;;;;;6.35;4.85;;;32.10;99.90;;;;;;5014606;28;20527;-47
2023/08/31 12:51:46;;;;;;;6.25;4.60;;;32.00;99.90;;;;;;5014631;28;20034;-47